Time;durP1;ratioP1;P1;durP2;ratioP2;P2;SDS_P1;SDS_P2;PMS_P1;PMS_P2;Temp;Humidity;BMP_temperature;BMP_pressure;BME280_temperature;BME280_humidity;BME280_pressure;Samples;Min_cycle;Max_cycle;Signal;HPM_P1;HPM_P2
2023/01/07 00:00:52;;;;;;;302.70;118.25;;;;;;;8.33;80.45;99758.91;5060533;28;20067;-62
2023/01/07 00:03:28;;;;;;;308.98;117.97;;;;;;;8.46;80.56;99759.34;5066560;28;20048;-62
2023/01/07 00:06:26;;;;;;;329.42;122.13;;;;;;;8.67;79.80;99756.41;5045924;28;20484;-62
2023/01/07 00:09:04;;;;;;;322.10;116.43;;;;;;;8.45;80.24;99762.16;5055809;28;20047;-65
2023/01/07 00:11:59;;;;;;;327.67;124.43;;;;;;;8.36;80.05;99765.72;5062668;28;20129;-63
2023/01/07 00:14:54;;;;;;;348.83;121.72;;;;;;;8.45;79.89;99765.59;5048154;28;20451;-63
2023/01/07 00:17:29;;;;;;;322.83;124.55;;;;;;;8.29;80.17;99769.91;5045808;28;20037;-62
2023/01/07 00:20:24;;;;;;;329.73;124.18;;;;;;;8.44;80.53;99777.19;5057968;28;20047;-62
2023/01/07 00:22:59;;;;;;;332.02;127.53;;;;;;;8.33;80.54;99779.19;5066724;28;20059;-62
2023/01/07 00:25:54;;;;;;;365.02;130.70;;;;;;;8.43;80.20;99775.50;5055074;28;20040;-63
2023/01/07 00:28:30;;;;;;;374.85;134.27;;;;;;;8.36;80.83;99771.00;5049660;28;20530;-62
2023/01/07 00:31:29;;;;;;;359.42;133.43;;;;;;;8.24;80.65;99778.28;5033994;28;20511;-64
2023/01/07 00:34:06;;;;;;;386.67;136.73;;;;;;;8.25;80.81;99777.28;5055787;28;20510;-62
2023/01/07 00:37:48;;;;;;;359.55;137.77;;;;;;;8.39;80.84;99770.69;5037699;28;20814;-62
2023/01/07 00:40:04;;;;;;;386.33;143.50;;;;;;;8.47;80.53;99787.41;5055961;28;20041;-63
2023/01/07 00:43:08;;;;;;;377.98;140.40;;;;;;;8.36;80.71;99810.59;5021004;28;20053;-62
2023/01/07 00:45:57;;;;;;;400.20;140.77;;;;;;;8.24;80.25;99807.28;5025717;28;20101;-63
2023/01/07 00:48:46;;;;;;;386.92;141.32;;;;;;;8.25;80.66;99818.69;5027300;28;20415;-63
2023/01/07 00:51:29;;;;;;;382.48;146.48;;;;;;;8.22;80.94;99821.63;5042449;28;20537;-62
2023/01/07 00:54:21;;;;;;;383.38;140.73;;;;;;;8.17;81.12;99813.34;5025851;28;20076;-61
2023/01/07 00:57:12;;;;;;;390.65;143.38;;;;;;;8.14;81.20;99817.91;5036970;28;20505;-63
2023/01/07 01:00:01;;;;;;;398.40;146.88;;;;;;;8.22;81.21;99816.34;5023570;28;20660;-65
2023/01/07 01:02:43;;;;;;;401.38;146.93;;;;;;;8.19;81.31;99814.81;5044855;28;20055;-62
2023/01/07 01:05:32;;;;;;;389.40;140.73;;;;;;;8.08;81.57;99807.97;5025626;28;20048;-63
2023/01/07 01:08:14;;;;;;;380.33;140.20;;;;;;;8.19;81.69;99814.03;5042726;28;20048;-62
2023/01/07 01:11:12;;;;;;;396.23;142.73;;;;;;;8.29;81.26;99807.72;5047526;28;20053;-62
2023/01/07 01:13:54;;;;;;;391.98;143.55;;;;;;;8.20;80.90;99819.13;5047472;28;20679;-65
2023/01/07 01:16:44;;;;;;;403.30;142.32;;;;;;;8.20;81.70;99819.13;5044839;28;20532;-63
2023/01/07 01:19:39;;;;;;;395.42;141.45;;;;;;;8.18;81.16;99822.91;5044142;28;20695;-62
2023/01/07 01:22:18;;;;;;;396.98;147.68;;;;;;;8.18;81.61;99830.81;5026635;28;20045;-63
2023/01/07 01:25:07;;;;;;;411.17;146.00;;;;;;;8.09;80.90;99819.38;5044914;28;20069;-63
2023/01/07 01:27:50;;;;;;;403.17;143.60;;;;;;;8.03;81.05;99818.16;5026847;28;20041;-62
2023/01/07 01:30:39;;;;;;;391.98;142.38;;;;;;;8.06;81.31;99828.38;4992662;28;20056;-64
2023/01/07 01:33:21;;;;;;;408.55;141.48;;;;;;;8.01;81.10;99833.28;5006560;28;20088;-62
2023/01/07 01:36:18;;;;;;;408.83;140.90;;;;;;;7.95;81.40;99843.59;5026066;28;20457;-63
2023/01/07 01:38:57;;;;;;;374.88;138.80;;;;;;;7.96;81.53;99835.56;5026536;28;20053;-62
2023/01/07 01:41:53;;;;;;;;;;;;;;;7.91;81.52;99843.06;5030716;28;20634;-62
2023/01/07 01:44:51;;;;;;;371.50;132.38;;;;;;;7.67;81.55;99835.69;5038592;28;19935;-61
2023/01/07 01:47:51;;;;;;;375.25;132.93;;;;;;;7.74;82.30;99837.75;5027599;28;20057;-61
2023/01/07 01:50:52;;;;;;;359.63;124.18;;;;;;;7.75;81.47;99842.03;5026625;28;20138;-63
2023/01/07 01:53:41;;;;;;;363.77;122.63;;;;;;;7.77;81.21;99851.47;5056874;28;20072;-62
2023/01/07 01:56:36;;;;;;;326.92;113.00;;;;;;;7.72;81.22;99845.81;5028757;28;20052;-64
2023/01/07 01:59:30;;;;;;;346.98;117.85;;;;;;;7.70;81.54;99846.94;5036767;28;20049;-63
2023/01/07 02:02:25;;;;;;;341.98;115.25;;;;;;;7.83;81.39;99845.63;5046015;28;20063;-64
2023/01/07 02:05:07;;;;;;;353.75;110.30;;;;;;;7.59;81.47;99853.22;5031561;28;20045;-62
2023/01/07 02:07:56;;;;;;;314.13;107.05;;;;;;;7.71;81.59;99857.31;5045451;28;20047;-61
2023/01/07 02:11:01;;;;;;;310.92;101.88;;;;;;;7.50;81.86;99854.91;5042993;28;20114;-62
2023/01/07 02:14:01;;;;;;;321.88;104.15;;;;;;;7.50;81.55;99852.28;5038084;28;20060;-62
2023/01/07 02:17:05;;;;;;;301.65;98.72;;;;;;;7.61;82.08;99852.09;5045947;28;20113;-63
2023/01/07 02:20:18;;;;;;;318.25;98.68;;;;;;;7.64;82.28;99864.16;5051468;28;20044;-61
2023/01/07 02:23:07;;;;;;;312.27;100.22;;;;;;;7.61;81.89;99862.63;5059044;28;20044;-62
2023/01/07 02:26:15;;;;;;;304.95;99.82;;;;;;;7.64;81.82;99862.34;5042945;28;20807;-62
2023/01/07 02:29:21;;;;;;;323.27;102.95;;;;;;;7.51;81.98;99872.41;5043791;28;20118;-61
2023/01/07 02:32:19;;;;;;;308.13;106.00;;;;;;;7.55;81.75;99879.03;5044932;28;20044;-62
2023/01/07 02:35:09;;;;;;;335.63;107.93;;;;;;;7.44;81.14;99878.38;5063649;28;20281;-62
2023/01/07 02:38:11;;;;;;;335.00;109.85;;;;;;;7.51;82.09;99887.38;5036369;28;20064;-62
2023/01/07 02:41:18;;;;;;;329.92;105.72;;;;;;;7.75;81.69;99892.97;5040113;28;20539;-65
2023/01/07 02:44:34;;;;;;;317.38;103.07;;;;;;;7.63;81.15;99894.97;5025172;28;20099;-65
2023/01/07 02:47:19;;;;;;;332.55;106.03;;;;;;;7.55;81.36;99894.03;5042305;28;20056;-63
2023/01/07 02:50:15;;;;;;;328.52;107.00;;;;;;;7.67;81.43;99893.69;5022439;28;20084;-64
2023/01/07 02:52:50;;;;;;;322.67;109.68;;;;;;;7.51;81.52;99884.75;5024908;28;20060;-61
2023/01/07 02:56:18;;;;;;;325.70;108.32;;;;;;;7.52;81.03;99875.88;5024754;28;20068;-62
2023/01/07 02:59:48;;;;;;;324.38;108.53;;;;;;;7.49;81.65;99884.03;5010305;28;20046;-61
2023/01/07 03:02:34;;;;;;;329.48;109.35;;;;;;;7.63;81.02;99881.78;5013287;28;20059;-64
2023/01/07 03:06:06;;;;;;;326.75;109.78;;;;;;;7.47;80.82;99892.13;5019215;28;20154;-63
2023/01/07 03:08:42;;;;;;;325.05;112.50;;;;;;;7.54;81.32;99884.44;5042480;28;20538;-63
2023/01/07 03:11:50;;;;;;;326.08;112.13;;;;;;;7.63;81.28;99888.84;5010825;28;20064;-62
2023/01/07 03:14:41;;;;;;;351.23;116.93;;;;;;;7.54;81.14;99884.44;5021075;28;20054;-62
2023/01/07 03:17:53;;;;;;;344.75;117.22;;;;;;;7.79;80.80;99896.97;5009938;28;20085;-62
2023/01/07 03:20:33;;;;;;;373.55;123.72;;;;;;;7.58;81.00;99902.47;5017903;28;20064;-61
2023/01/07 03:23:25;;;;;;;361.27;124.13;;;;;;;7.77;80.47;99906.00;5027472;28;20119;-62
2023/01/07 03:26:11;;;;;;;374.25;121.18;;;;;;;7.73;80.41;99921.31;5013964;28;20148;-63
2023/01/07 03:29:04;;;;;;;351.27;124.43;;;;;;;7.68;80.88;99940.19;5025102;28;20049;-64
2023/01/07 03:31:56;;;;;;;355.08;123.88;;;;;;;7.83;81.23;99950.28;5021866;28;20049;-62
2023/01/07 03:34:52;;;;;;;359.48;123.85;;;;;;;7.94;80.46;99950.91;5042187;28;20136;-64
2023/01/07 03:37:30;;;;;;;372.35;122.10;;;;;;;7.85;80.34;99951.78;5023008;28;20056;-63
2023/01/07 03:40:20;;;;;;;345.40;121.57;;;;;;;8.10;80.42;99940.56;5024427;28;20048;-62
2023/01/07 03:43:20;;;;;;;378.27;126.22;;;;;;;8.21;79.47;99939.53;5040799;28;20040;-65
2023/01/07 03:45:58;;;;;;;373.92;123.93;;;;;;;7.91;79.29;99937.19;5063336;28;20068;-64
2023/01/07 03:48:53;;;;;;;342.15;121.05;;;;;;;7.89;79.73;99926.78;5011158;28;20055;-63
2023/01/07 03:51:30;;;;;;;346.25;115.88;;;;;;;7.93;80.09;99928.16;5038851;28;20053;-62
2023/01/07 03:54:26;;;;;;;361.83;124.73;;;;;;;8.21;79.25;99931.63;5047441;28;20498;-63
2023/01/07 03:57:02;;;;;;;356.25;119.30;;;;;;;8.34;78.34;99939.22;5042694;28;20286;-65
2023/01/07 03:59:51;;;;;;;373.48;120.03;;;;;;;8.24;78.96;99936.59;5064012;28;20050;-63
2023/01/07 04:02:48;;;;;;;337.05;111.35;;;;;;;8.03;79.16;99936.84;5063037;28;20358;-63
2023/01/07 04:05:42;;;;;;;324.17;110.95;;;;;;;8.04;79.45;99933.25;5048220;28;20131;-64
2023/01/07 04:08:25;;;;;;;319.55;111.43;;;;;;;8.16;78.96;99936.50;5063514;28;20110;-62
2023/01/07 04:11:20;;;;;;;323.83;111.38;;;;;;;8.30;79.17;99936.06;5064319;28;20815;-62
2023/01/07 04:13:59;;;;;;;313.45;108.25;;;;;;;8.22;79.10;99943.00;5065992;28;20127;-62
2023/01/07 04:16:52;;;;;;;311.00;103.65;;;;;;;7.98;79.04;99940.91;5042367;28;20476;-64
2023/01/07 04:19:41;;;;;;;289.95;102.88;;;;;;;8.05;79.02;99928.81;5048018;28;20075;-64
2023/01/07 04:22:23;;;;;;;310.75;105.13;;;;;;;8.17;78.32;99927.63;5045002;28;20143;-64
2023/01/07 04:25:14;;;;;;;296.02;100.22;;;;;;;8.21;77.89;99931.63;5045609;28;20060;-62
2023/01/07 04:28:03;;;;;;;257.00;90.22;;;;;;;8.16;78.30;99933.03;5048678;28;20057;-63
2023/01/07 04:30:52;;;;;;;251.20;88.90;;;;;;;8.23;78.64;99934.13;5033785;28;20392;-62
2023/01/07 04:33:43;;;;;;;257.48;87.03;;;;;;;8.42;78.28;99936.66;5046389;28;20060;-63
2023/01/07 04:36:26;;;;;;;;;;;;;;;8.33;78.07;99937.56;5032676;28;20056;-63
2023/01/07 04:39:16;;;;;;;255.10;83.22;;;;;;;8.27;78.97;99943.41;5032547;28;19921;-61
2023/01/07 04:42:13;;;;;;;248.63;86.63;;;;;;;8.36;78.19;99934.66;5037866;28;20041;-62
2023/01/07 04:44:48;;;;;;;247.98;87.10;;;;;;;8.51;78.29;99935.78;5048396;28;20045;-62
2023/01/07 04:47:38;;;;;;;253.75;87.18;;;;;;;8.80;77.41;99935.59;5024413;28;20618;-61
2023/01/07 04:50:27;;;;;;;236.13;81.55;;;;;;;8.58;77.37;99947.44;5026460;28;20442;-61
2023/01/07 04:53:22;;;;;;;254.70;80.63;;;;;;;8.67;77.04;99951.81;5015938;28;20060;-61
2023/01/07 04:55:57;;;;;;;257.60;83.60;;;;;;;8.74;76.85;99957.31;5022678;28;20071;-64
2023/01/07 04:58:46;;;;;;;243.48;83.03;;;;;;;8.70;77.60;99970.00;5005432;28;20692;-63
2023/01/07 05:01:35;;;;;;;247.00;79.82;;;;;;;8.60;77.32;99971.03;5038022;28;20049;-62
2023/01/07 05:04:24;;;;;;;236.48;79.32;;;;;;;8.74;77.75;99967.88;5051660;28;20148;-63
2023/01/07 05:07:06;;;;;;;222.82;79.03;;;;;;;8.75;77.48;99969.53;5036683;28;20119;-63
2023/01/07 05:09:55;;;;;;;248.10;82.68;;;;;;;8.72;77.29;99983.84;5032743;28;20099;-63
2023/01/07 05:12:44;;;;;;;232.95;82.22;;;;;;;8.82;76.88;99997.84;5042049;28;20060;-59
2023/01/07 05:15:33;;;;;;;237.65;81.97;;;;;;;8.91;77.94;100002.22;5022451;28;20143;-62
2023/01/07 05:18:23;;;;;;;242.00;81.70;;;;;;;9.06;76.95;100014.94;5006440;28;20800;-60
2023/01/07 05:21:05;;;;;;;248.55;84.88;;;;;;;9.07;76.26;100016.59;5040017;28;20503;-60
2023/01/07 05:23:54;;;;;;;265.08;84.50;;;;;;;9.18;76.47;99998.69;5041659;28;20041;-62
2023/01/07 05:26:36;;;;;;;246.30;84.88;;;;;;;9.55;74.45;100002.97;5044216;28;20146;-61
2023/01/07 05:29:26;;;;;;;259.58;89.50;;;;;;;9.40;75.78;99987.63;5029294;28;20049;-64
2023/01/07 05:32:15;;;;;;;232.35;80.72;;;;;;;9.16;75.29;99983.97;5039804;28;20041;-60
2023/01/07 05:35:04;;;;;;;242.98;85.30;;;;;;;8.99;76.01;99981.16;5043731;28;20500;-62
2023/01/07 05:37:47;;;;;;;232.50;81.72;;;;;;;9.33;75.22;99980.47;5024225;28;20045;-64
2023/01/07 05:40:37;;;;;;;244.15;86.68;;;;;;;9.18;74.79;99974.06;5019460;28;20056;-63
2023/01/07 05:43:38;;;;;;;258.17;88.70;;;;;;;9.24;75.68;99970.81;4996815;28;20050;-64
2023/01/07 05:46:13;;;;;;;260.83;90.82;;;;;;;9.43;74.98;99960.88;5026936;28;20555;-66
2023/01/07 05:49:09;;;;;;;251.00;88.18;;;;;;;9.54;74.96;99948.41;5044280;28;20053;-62
2023/01/07 05:51:44;;;;;;;265.45;91.63;;;;;;;9.74;73.45;99932.16;5029716;28;20061;-62
2023/01/07 05:54:34;;;;;;;241.65;91.07;;;;;;;9.89;73.08;99925.31;5036411;28;20040;-64
2023/01/07 05:57:16;;;;;;;263.13;90.68;;;;;;;9.88;72.12;99942.16;5040469;28;20048;-61
2023/01/07 06:00:05;;;;;;;250.15;87.35;;;;;;;10.12;72.89;99938.81;5048582;28;20041;-61
2023/01/07 06:02:48;;;;;;;253.70;88.63;;;;;;;10.21;71.82;99931.75;5032073;28;20037;-61
2023/01/07 06:05:43;;;;;;;269.55;94.22;;;;;;;10.08;71.72;99929.53;5024233;28;20067;-62
2023/01/07 06:08:18;;;;;;;263.83;96.65;;;;;;;10.21;71.97;99929.09;5023202;28;20140;-62
2023/01/07 06:11:08;;;;;;;288.98;101.57;;;;;;;10.63;70.89;99932.53;5023842;28;20046;-63
2023/01/07 06:13:50;;;;;;;265.08;98.30;;;;;;;11.11;68.98;99925.63;5034542;28;20056;-62
2023/01/07 06:16:47;;;;;;;290.25;104.00;;;;;;;11.28;68.76;99927.28;5036977;28;20052;-64
2023/01/07 06:19:23;;;;;;;285.83;101.97;;;;;;;11.06;69.31;99928.78;5000560;28;20049;-62
2023/01/07 06:22:12;;;;;;;308.45;109.07;;;;;;;11.07;69.47;99919.81;5032843;28;20084;-61
2023/01/07 06:25:01;;;;;;;298.77;105.22;;;;;;;10.98;68.47;99912.84;5036286;28;20049;-62
2023/01/07 06:27:43;;;;;;;306.33;110.43;;;;;;;10.85;68.48;99915.16;5041391;28;20064;-62
2023/01/07 06:30:32;;;;;;;308.13;109.53;;;;;;;10.96;69.06;99908.72;5038805;28;20060;-61
2023/01/07 06:33:15;;;;;;;294.98;109.32;;;;;;;11.16;68.05;99897.63;5028618;28;20627;-61
2023/01/07 06:36:05;;;;;;;302.77;112.45;;;;;;;11.35;68.12;99903.56;5041332;28;20072;-62
2023/01/07 06:38:47;;;;;;;313.15;111.45;;;;;;;11.65;66.93;99897.53;5042448;28;20040;-62
2023/01/07 06:41:42;;;;;;;329.60;122.45;;;;;;;11.59;66.27;99885.78;5044316;28;20045;-62
2023/01/07 06:44:31;;;;;;;329.02;122.78;;;;;;;11.43;66.90;99875.19;5032473;28;20043;-61
2023/01/07 06:47:20;;;;;;;349.85;122.47;;;;;;;11.83;66.89;99860.19;5039606;28;20106;-63
2023/01/07 06:50:02;;;;;;;345.40;124.13;;;;;;;12.28;65.45;99848.84;5023724;28;20059;-61
2023/01/07 06:52:51;;;;;;;353.65;128.02;;;;;;;11.94;65.65;99841.25;5039521;28;20041;-62
2023/01/07 06:55:34;;;;;;;361.00;135.10;;;;;;;11.65;65.27;99836.50;5039700;28;20049;-58
2023/01/07 06:58:24;;;;;;;370.40;133.52;;;;;;;12.03;65.66;99827.75;5039656;28;20154;-61
2023/01/07 07:01:07;;;;;;;383.70;135.73;;;;;;;12.18;65.08;99827.00;5032461;28;20041;-63
2023/01/07 07:03:56;;;;;;;374.98;135.18;;;;;;;12.25;64.33;99822.66;5040811;28;20144;-59
2023/01/07 07:06:38;;;;;;;365.58;135.80;;;;;;;12.26;64.17;99817.13;5039647;28;20492;-62
2023/01/07 07:09:27;;;;;;;359.33;132.77;;;;;;;12.49;64.96;99811.84;5022740;28;20041;-62
2023/01/07 07:12:09;;;;;;;375.08;134.57;;;;;;;12.84;62.80;99810.38;5018771;28;20072;-64
2023/01/07 07:14:59;;;;;;;349.45;131.15;;;;;;;12.83;63.43;99801.63;5039974;28;20044;-63
2023/01/07 07:17:41;;;;;;;377.48;136.07;;;;;;;12.85;62.73;99788.13;5039963;28;20749;-61
2023/01/07 07:20:30;;;;;;;364.70;136.60;;;;;;;12.85;63.22;99774.81;5037348;28;20053;-60
2023/01/07 07:23:19;;;;;;;377.63;139.07;;;;;;;12.75;63.87;99771.59;5036340;28;20076;-62
2023/01/07 07:26:01;;;;;;;369.52;139.23;;;;;;;12.58;63.38;99765.59;5039893;28;20631;-59
2023/01/07 07:28:56;;;;;;;371.55;138.55;;;;;;;12.77;63.26;99759.78;5039534;28;20099;-58
2023/01/07 07:31:31;;;;;;;380.55;141.30;;;;;;;12.97;62.88;99750.28;5020209;28;20065;-61
2023/01/07 07:34:20;;;;;;;377.27;143.73;;;;;;;12.99;63.03;99737.63;5040875;28;20380;-60
2023/01/07 07:37:09;;;;;;;382.08;142.13;;;;;;;12.68;63.78;99718.34;5048748;28;20143;-62
2023/01/07 07:39:51;;;;;;;380.90;145.25;;;;;;;12.70;63.48;99726.94;5045176;28;20053;-60
2023/01/07 07:42:46;;;;;;;379.95;142.38;;;;;;;12.59;64.22;99728.22;5037678;28;20096;-59
2023/01/07 07:45:42;;;;;;;375.85;147.35;;;;;;;12.68;63.66;99728.97;5036746;28;20048;-59
2023/01/07 07:48:38;;;;;;;386.92;144.88;;;;;;;12.64;63.73;99725.03;5012643;28;20481;-58
2023/01/07 07:51:13;;;;;;;394.30;148.65;;;;;;;12.59;62.92;99724.75;5033711;28;20084;-59
2023/01/07 07:54:08;;;;;;;375.80;145.38;;;;;;;12.60;63.92;99727.22;5034886;28;20064;-59
2023/01/07 07:56:43;;;;;;;382.83;150.57;;;;;;;12.90;63.75;99729.91;5038569;28;20060;-59
2023/01/07 07:59:38;;;;;;;384.20;146.27;;;;;;;12.83;63.03;99727.19;5028049;28;20111;-59
2023/01/07 08:02:14;;;;;;;386.30;147.60;;;;;;;12.78;64.21;99724.22;5035546;28;20057;-60
2023/01/07 08:05:03;;;;;;;408.95;153.15;;;;;;;12.94;64.13;99725.88;5032501;28;20456;-59
2023/01/07 08:07:45;;;;;;;408.45;153.82;;;;;;;13.09;63.81;99710.78;5037630;28;20041;-62
2023/01/07 08:10:34;;;;;;;409.58;157.05;;;;;;;13.24;63.30;99705.44;5037627;28;20161;-61
2023/01/07 08:13:18;;;;;;;392.63;151.32;;;;;;;13.34;63.02;99698.84;5034961;28;20123;-59
2023/01/07 08:16:07;;;;;;;392.60;153.60;;;;;;;13.38;62.40;99694.81;5037031;28;20143;-60
2023/01/07 08:18:56;;;;;;;421.23;162.73;;;;;;;13.49;63.21;99688.19;5033791;28;20136;-58
2023/01/07 08:21:45;;;;;;;412.15;154.43;;;;;;;13.66;62.16;99686.13;5031479;28;20122;-61
2023/01/07 08:24:34;;;;;;;400.88;154.25;;;;;;;13.77;61.56;99682.94;5031380;28;20570;-60
2023/01/07 08:27:17;;;;;;;405.63;152.65;;;;;;;13.77;62.09;99691.75;5031737;28;20080;-59
2023/01/07 08:30:06;;;;;;;398.85;154.13;;;;;;;13.87;61.58;99683.47;5035375;28;20657;-60
2023/01/07 08:32:59;;;;;;;391.98;151.05;;;;;;;13.90;60.99;99677.75;5031204;28;20080;-63
2023/01/07 08:35:50;;;;;;;402.95;149.45;;;;;;;13.83;61.90;99669.72;5031974;28;20146;-63
2023/01/07 08:38:32;;;;;;;409.43;151.13;;;;;;;14.09;61.06;99660.31;5032540;28;20053;-60
2023/01/07 08:41:29;;;;;;;391.15;147.63;;;;;;;14.12;61.00;99660.75;5034759;28;20373;-55
2023/01/07 08:44:18;;;;;;;394.20;147.90;;;;;;;14.04;61.22;99668.06;5053853;28;20102;-62
2023/01/07 08:47:07;;;;;;;370.17;141.10;;;;;;;14.11;61.71;99674.28;5059542;28;20245;-58
2023/01/07 08:49:49;;;;;;;394.48;145.82;;;;;;;14.19;60.53;99669.66;5034189;28;20048;-60
2023/01/07 08:52:39;;;;;;;373.27;137.70;;;;;;;13.97;60.73;99664.53;5058344;28;20661;-63
2023/01/07 08:55:22;;;;;;;357.83;140.07;;;;;;;13.65;61.61;99661.34;5054453;28;20056;-61
2023/01/07 08:58:11;;;;;;;365.30;134.68;;;;;;;13.57;62.24;99644.66;5052268;28;20048;-63
2023/01/07 09:00:53;;;;;;;375.15;138.93;;;;;;;13.63;62.41;99665.22;5052706;28;20041;-67
2023/01/07 09:03:42;;;;;;;376.00;137.90;;;;;;;13.63;62.71;99655.38;5056537;28;20072;-66
2023/01/07 09:06:24;;;;;;;354.88;132.30;;;;;;;13.42;62.72;99645.53;5052965;28;20535;-66
2023/01/07 09:09:15;;;;;;;368.55;132.25;;;;;;;13.46;63.46;99643.31;5046390;28;20056;-63
2023/01/07 09:11:57;;;;;;;370.02;132.68;;;;;;;13.23;64.08;99637.31;5054243;28;20091;-64
2023/01/07 09:14:46;;;;;;;345.83;128.80;;;;;;;13.09;63.87;99646.13;5059138;28;20044;-65
2023/01/07 09:17:28;;;;;;;353.65;127.80;;;;;;;13.20;65.50;99643.81;5052612;28;20060;-63
2023/01/07 09:20:17;;;;;;;347.33;126.35;;;;;;;13.38;64.59;99632.78;5063885;28;20535;-64
2023/01/07 09:22:59;;;;;;;332.15;124.07;;;;;;;13.37;64.10;99631.94;5056956;28;20053;-65
2023/01/07 09:25:48;;;;;;;333.10;124.85;;;;;;;13.15;64.22;99635.56;5060708;28;20706;-64
2023/01/07 09:28:30;;;;;;;340.48;129.38;;;;;;;13.04;64.67;99633.38;5055879;28;20134;-64
2023/01/07 09:31:19;;;;;;;344.50;121.82;;;;;;;13.14;65.19;99615.34;5050836;28;20065;-65
2023/01/07 09:34:02;;;;;;;349.60;125.07;;;;;;;13.23;65.13;99611.53;5059700;28;20707;-65
2023/01/07 09:36:51;;;;;;;350.02;120.55;;;;;;;13.18;65.26;99616.59;5062822;28;20574;-65
2023/01/07 09:39:33;;;;;;;331.45;120.15;;;;;;;13.10;65.31;99643.25;5050177;28;20056;-65
2023/01/07 09:42:37;;;;;;;337.48;120.93;;;;;;;13.12;64.65;99651.91;5033249;28;20049;-66
2023/01/07 09:45:18;;;;;;;342.83;122.15;;;;;;;12.92;65.57;99656.13;5062789;28;20651;-69
2023/01/07 09:48:22;;;;;;;343.80;120.82;;;;;;;12.97;65.62;99657.19;5058629;28;20062;-64
2023/01/07 09:51:14;;;;;;;336.52;119.60;;;;;;;12.98;65.82;99648.22;5062467;28;20056;-66
2023/01/07 09:54:20;;;;;;;321.35;120.05;;;;;;;12.89;65.69;99659.13;5056147;28;20055;-60
2023/01/07 09:57:03;;;;;;;331.60;117.25;;;;;;;12.80;65.97;99663.72;5054057;28;20113;-63
2023/01/07 09:59:52;;;;;;;319.60;117.32;;;;;;;12.56;65.81;99669.31;5059974;28;20037;-63
2023/01/07 10:02:50;;;;;;;329.67;118.78;;;;;;;12.52;66.65;99654.75;5057256;28;20051;-63
2023/01/07 10:06:00;;;;;;;323.15;114.82;;;;;;;12.49;67.22;99657.72;5063082;28;20160;-65
2023/01/07 10:08:38;;;;;;;305.17;114.70;;;;;;;12.48;67.81;99661.41;5056692;28;20056;-62
2023/01/07 10:11:59;;;;;;;307.00;112.57;;;;;;;12.45;67.65;99665.25;5056440;28;20125;-63
2023/01/07 10:15:08;;;;;;;304.95;108.97;;;;;;;12.28;68.26;99665.56;5052248;28;20358;-63
2023/01/07 10:17:59;;;;;;;299.60;109.00;;;;;;;12.25;68.40;99660.63;5042679;28;20036;-63
2023/01/07 10:21:05;;;;;;;290.35;107.43;;;;;;;12.02;68.58;99665.97;5050107;28;20542;-66
2023/01/07 10:24:02;;;;;;;312.02;109.30;;;;;;;12.00;69.23;99666.13;5047481;28;20101;-71
2023/01/07 10:26:55;;;;;;;285.23;100.47;;;;;;;11.92;69.76;99662.72;5055246;28;20068;-62
2023/01/07 10:29:54;;;;;;;276.80;99.38;;;;;;;11.67;69.64;99641.63;5060932;28;20468;-67
2023/01/07 10:32:54;;;;;;;279.83;101.40;;;;;;;11.54;70.54;99625.47;5059340;28;20622;-65
2023/01/07 10:35:36;;;;;;;279.85;101.15;;;;;;;11.63;71.44;99608.50;4705634;28;9999747;-65
2023/01/07 10:38:44;;;;;;;271.60;99.72;;;;;;;11.66;70.70;99615.28;5054134;28;20463;-68
2023/01/07 10:42:20;;;;;;;301.80;101.03;;;;;;;11.78;71.38;99610.41;4700807;28;9999739;-62
2023/01/07 10:45:23;;;;;;;282.88;100.63;;;;;;;11.77;70.82;99614.91;5038930;28;20479;-66
2023/01/07 10:48:31;;;;;;;263.73;98.88;;;;;;;11.79;70.47;99630.63;5043209;28;20059;-70
2023/01/07 10:52:00;;;;;;;269.88;98.25;;;;;;;12.08;69.83;99658.09;5038323;28;20106;-63
2023/01/07 10:55:04;;;;;;;255.43;90.28;;;;;;;11.84;69.75;99644.19;5040046;28;20164;-68
2023/01/07 10:57:54;;;;;;;264.90;101.47;;;;;;;11.82;70.37;99683.34;5038819;28;20582;-66
2023/01/07 11:00:53;;;;;;;262.40;95.72;;;;;;;11.75;70.47;99719.56;5021463;28;20053;-68
2023/01/07 11:03:28;;;;;;;270.60;97.70;;;;;;;11.71;69.72;99711.94;5023022;28;20048;-67
2023/01/07 11:06:25;;;;;;;256.58;95.82;;;;;;;11.55;70.43;99712.00;5039097;28;20059;-66
2023/01/07 11:09:10;;;;;;;252.57;92.53;;;;;;;11.66;70.13;99697.53;5043341;28;20739;-64
2023/01/07 11:12:04;;;;;;;246.82;91.25;;;;;;;11.54;70.48;99683.00;5043117;28;20122;-67
2023/01/07 11:14:47;;;;;;;243.55;94.07;;;;;;;11.52;70.50;99685.84;5027051;28;20365;-67
2023/01/07 11:17:48;;;;;;;246.80;92.00;;;;;;;11.56;71.19;99663.25;5042519;28;20053;-69
2023/01/07 11:21:02;;;;;;;237.75;88.57;;;;;;;11.44;71.81;99662.00;5035747;28;20738;-67
2023/01/07 11:24:33;;;;;;;239.05;89.65;;;;;;;11.51;71.11;99665.59;5043633;28;20706;-68
2023/01/07 11:27:17;;;;;;;226.20;86.28;;;;;;;11.55;70.83;99664.25;5046097;28;20041;-64
2023/01/07 11:30:25;;;;;;;207.85;80.20;;;;;;;11.44;71.08;99669.97;5045601;28;20048;-66
2023/01/07 11:33:13;;;;;;;211.93;80.57;;;;;;;11.55;70.97;99695.28;5043906;28;20709;-66
2023/01/07 11:36:03;;;;;;;201.05;78.97;;;;;;;11.61;70.69;99692.75;5044888;28;20052;-66
2023/01/07 11:38:46;;;;;;;193.63;76.13;;;;;;;11.54;71.13;99694.47;5040093;28;20045;-64
2023/01/07 11:41:41;;;;;;;200.07;74.95;;;;;;;11.45;71.22;99684.06;5039155;28;20114;-64
2023/01/07 11:44:30;;;;;;;181.82;70.13;;;;;;;11.31;71.55;99682.97;5052949;28;20044;-61
2023/01/07 11:47:23;;;;;;;186.73;71.28;;;;;;;11.36;71.97;99670.00;5059959;28;20079;-64
2023/01/07 11:50:08;;;;;;;202.10;73.70;;;;;;;11.32;72.39;99668.72;5059392;28;20059;-62
2023/01/07 11:53:07;;;;;;;181.93;70.32;;;;;;;11.21;72.10;99661.97;5055620;28;20049;-63
2023/01/07 11:56:00;;;;;;;178.55;69.63;;;;;;;11.16;71.89;99639.59;5061087;28;20566;-66
2023/01/07 11:58:52;;;;;;;177.20;72.00;;;;;;;11.05;72.46;99637.34;5063456;28;20053;-65
2023/01/07 12:01:45;;;;;;;179.00;73.63;;;;;;;10.96;72.53;99644.50;5063815;28;20757;-66
2023/01/07 12:04:40;;;;;;;195.27;73.47;;;;;;;10.99;72.82;99644.16;5061339;28;20064;-67
2023/01/07 12:07:23;;;;;;;190.65;74.63;;;;;;;11.04;73.05;99641.81;5062749;28;20052;-62
2023/01/07 12:10:31;;;;;;;190.32;73.90;;;;;;;10.97;73.41;99650.66;5041109;28;20052;-62
2023/01/07 12:13:24;;;;;;;191.02;73.00;;;;;;;10.92;73.39;99637.91;5049847;28;20345;-61
2023/01/07 12:16:14;;;;;;;200.23;77.03;;;;;;;11.12;72.99;99646.25;5060520;28;20059;-65
2023/01/07 12:19:41;;;;;;;187.88;73.60;;;;;;;11.21;73.08;99647.88;5061677;28;20419;-61
2023/01/07 12:22:45;;;;;;;201.18;78.15;;;;;;;11.40;72.00;99652.75;5019572;28;20044;-62
2023/01/07 12:26:03;;;;;;;187.43;74.38;;;;;;;11.59;70.72;99656.78;5059913;28;20048;-63
2023/01/07 12:29:14;;;;;;;183.02;74.05;;;;;;;11.54;71.67;99669.75;5062842;28;20044;-64
2023/01/07 12:32:31;;;;;;;215.55;78.97;;;;;;;11.60;71.26;99677.00;5057434;28;20134;-64
2023/01/07 12:35:23;;;;;;;216.00;89.43;;;;;;;11.73;71.44;99674.63;5027917;28;20372;-66
2023/01/07 12:38:24;;;;;;;219.85;90.32;;;;;;;11.95;69.79;99673.00;5061834;28;20055;-64
2023/01/07 12:41:19;;;;;;;200.15;84.57;;;;;;;11.72;70.44;99675.66;5063879;28;20426;-61
2023/01/07 12:44:18;;;;;;;197.88;79.63;;;;;;;11.83;69.78;99674.41;5040051;28;20613;-63
2023/01/07 12:47:06;;;;;;;202.90;80.35;;;;;;;11.68;70.76;99695.53;5033381;28;20076;-66
2023/01/07 12:50:33;;;;;;;200.65;81.32;;;;;;;11.99;70.53;99685.72;5044020;28;20045;-64
2023/01/07 12:53:24;;;;;;;215.75;84.20;;;;;;;11.85;70.35;99685.69;5030643;28;20139;-66
2023/01/07 12:56:36;;;;;;;218.48;85.70;;;;;;;11.96;69.88;99686.06;4683308;28;10000470;-61